Time;durP1;ratioP1;P1;durP2;ratioP2;P2;SDS_P1;SDS_P2;PMS_P1;PMS_P2;Temp;Humidity;BMP_temperature;BMP_pressure;BME280_temperature;BME280_humidity;BME280_pressure;Samples;Min_cycle;Max_cycle;Signal;HPM_P1;HPM_P2
2023/10/07 00:00:47;;;;;;;8.40;3.92;;;;;;;11.80;78.83;100757.66;6194007;28;20137;-72
2023/10/07 00:03:50;;;;;;;7.22;3.67;;;;;;;11.75;79.58;100752.66;6193499;28;20042;-72
2023/10/07 00:06:53;;;;;;;7.25;3.85;;;;;;;11.76;79.83;100746.50;6198106;28;20050;-72
2023/10/07 00:09:55;;;;;;;6.10;3.67;;;;;;;11.64;79.61;100734.09;6196732;28;20055;-72
2023/10/07 00:12:57;;;;;;;9.20;3.95;;;;;;;11.61;79.19;100735.13;6299254;28;20046;-72
2023/10/07 00:15:59;;;;;;;;;;;;;;;11.59;78.69;100729.16;6197526;28;20058;-72
2023/10/07 00:19:00;;;;;;;9.75;4.78;;;;;;;11.55;78.64;100726.75;6196111;28;19982;-72
2023/10/07 00:22:08;;;;;;;7.00;4.05;;;;;;;11.51;79.27;100726.09;6197864;28;20046;-71
2023/10/07 00:25:12;;;;;;;10.75;3.50;;;;;;;11.47;78.84;100720.19;6197505;28;20155;-71
2023/10/07 00:28:24;;;;;;;8.43;4.20;;;;;;;11.56;78.21;100715.38;6197558;28;20054;-72
2023/10/07 00:31:27;;;;;;;6.20;3.60;;;;;;;11.54;78.45;100715.47;6196518;28;20092;-72
2023/10/07 00:34:31;;;;;;;7.70;3.67;;;;;;;11.53;78.53;100716.41;6197608;28;20073;-72
2023/10/07 00:37:43;;;;;;;7.88;4.30;;;;;;;11.47;79.17;100724.59;6196584;28;20115;-72
2023/10/07 00:40:54;;;;;;;6.93;4.18;;;;;;;11.49;78.41;100722.72;6197951;28;20058;-71
2023/10/07 00:43:59;;;;;;;15.10;3.55;;;;;;;11.44;78.47;100719.50;6197625;28;20398;-71
2023/10/07 00:47:22;;;;;;;6.97;3.72;;;;;;;11.46;78.68;100720.25;6197474;28;20417;-72
2023/10/07 00:50:27;;;;;;;9.52;3.80;;;;;;;11.39;78.81;100721.53;6197519;28;20074;-72
2023/10/07 00:53:30;;;;;;;12.57;4.43;;;;;;;11.33;79.16;100722.69;6197456;28;20084;-72
2023/10/07 00:56:41;;;;;;;7.00;3.78;;;;;;;11.40;78.92;100707.53;6197411;28;20051;-72
2023/10/07 00:59:49;;;;;;;9.50;4.13;;;;;;;11.28;79.67;100701.19;6197741;28;20142;-72
2023/10/07 01:02:51;;;;;;;9.52;3.47;;;;;;;11.21;79.85;100703.28;6196178;28;20047;-72
2023/10/07 01:09:11;;;;;;;9.25;4.20;;;;;;;11.21;79.49;100698.06;6193049;28;20052;-72
2023/10/07 01:12:12;;;;;;;9.07;3.72;;;;;;;11.14;80.33;100703.69;6197422;28;20054;-72
2023/10/07 01:15:26;;;;;;;9.80;4.43;;;;;;;11.09;80.45;100706.56;6195120;28;20061;-72
2023/10/07 01:18:29;;;;;;;10.82;3.47;;;;;;;11.06;80.37;100694.50;6197097;28;20463;-72
2023/10/07 01:21:31;;;;;;;7.53;3.95;;;;;;;11.08;80.42;100699.66;6195889;28;20055;-71
2023/10/07 01:27:49;;;;;;;14.00;4.45;;;;;;;11.13;81.05;100704.63;6196861;28;20426;-72
2023/10/07 01:31:29;;;;;;;9.73;4.22;;;;;;;11.03;80.64;100694.66;6196952;28;20051;-71
2023/10/07 01:34:24;;;;;;;8.82;3.42;;;;;;;11.08;79.93;100697.03;6200103;28;20554;-72
2023/10/07 01:37:29;;;;;;;13.23;3.72;;;;;;;11.14;80.11;100683.66;6196649;28;20452;-72
2023/10/07 01:41:05;;;;;;;7.68;4.00;;;;;;;11.08;80.37;100689.22;6196608;28;20046;-73
2023/10/07 01:44:00;;;;;;;5.30;3.80;;;;;;;10.97;80.88;100686.31;6198356;28;20054;-72
2023/10/07 01:47:03;;;;;;;7.13;3.55;;;;;;;10.97;80.77;100681.91;6196388;28;20093;-72
2023/10/07 01:50:11;;;;;;;9.68;3.88;;;;;;;10.93;81.05;100688.22;6196603;28;20055;-72
2023/10/07 01:53:16;;;;;;;7.40;3.92;;;;;;;10.88;80.97;100680.63;6196192;28;20054;-72
2023/10/07 01:56:17;;;;;;;8.57;3.90;;;;;;;10.91;81.21;100674.41;6196452;28;20054;-72
2023/10/07 01:59:21;;;;;;;9.02;3.85;;;;;;;10.79;82.22;100677.66;6196313;28;20057;-72
2023/10/07 02:02:25;;;;;;;15.27;4.20;;;;;;;10.62;82.55;100673.31;6195225;28;20100;-72
2023/10/07 02:05:40;;;;;;;9.00;3.65;;;;;;;10.65;82.37;100683.63;6195051;28;20046;-72
2023/10/07 02:08:41;;;;;;;6.95;3.60;;;;;;;10.47;83.63;100667.97;6196238;28;20065;-72
2023/10/07 02:11:42;;;;;;;6.45;3.85;;;;;;;10.54;83.87;100672.88;6196150;28;20051;-71
2023/10/07 02:14:43;;;;;;;8.32;3.92;;;;;;;10.55;84.22;100675.41;6195938;28;20095;-72
2023/10/07 02:17:47;;;;;;;10.20;4.10;;;;;;;10.63;83.69;100672.41;6195885;28;20051;-72
2023/10/07 02:21:07;;;;;;;9.60;3.72;;;;;;;10.56;83.35;100664.03;6196241;28;20134;-72
2023/10/07 02:24:09;;;;;;;7.90;3.72;;;;;;;10.53;83.43;100663.38;6195916;28;20133;-72
2023/10/07 02:27:19;;;;;;;7.97;4.15;;;;;;;10.41;84.08;100660.44;6194033;28;20050;-71
2023/10/07 02:30:25;;;;;;;6.03;3.40;;;;;;;10.38;85.12;100665.00;6194615;28;20052;-71
2023/10/07 02:33:34;;;;;;;7.82;3.65;;;;;;;10.31;85.05;100655.78;6195173;28;20486;-72
2023/10/07 02:36:51;;;;;;;7.78;3.83;;;;;;;10.27;84.54;100652.44;6193915;28;20054;-72
2023/10/07 02:40:02;;;;;;;6.10;3.80;;;;;;;10.36;84.73;100652.03;6195702;28;20050;-71
2023/10/07 02:43:07;;;;;;;7.38;3.72;;;;;;;10.33;85.21;100643.50;6195380;28;20046;-71
2023/10/07 02:46:08;;;;;;;8.88;3.35;;;;;;;10.19;85.55;100639.81;6195297;28;20119;-71
2023/10/07 02:49:13;;;;;;;5.90;3.65;;;;;;;10.16;85.56;100645.16;6195299;28;20054;-71
2023/10/07 02:52:17;;;;;;;13.82;3.60;;;;;;;10.07;86.24;100637.81;6195368;28;20054;-71
2023/10/07 02:58:36;;;;;;;8.63;3.63;;;;;;;10.06;86.37;100638.72;6195327;28;20051;-72
2023/10/07 03:01:38;;;;;;;12.10;4.25;;;;;;;10.04;86.33;100633.56;6195104;28;20064;-71
2023/10/07 03:04:43;;;;;;;7.88;3.45;;;;;;;9.97;86.88;100626.97;6195203;28;20053;-72
2023/10/07 03:07:49;;;;;;;12.30;3.90;;;;;;;9.95;87.12;100630.59;6194913;28;20433;-72
2023/10/07 03:14:14;;;;;;;8.77;3.95;;;;;;;9.96;86.67;100616.63;6194921;28;20046;-72
2023/10/07 03:17:18;;;;;;;9.13;3.70;;;;;;;9.89;88.32;100616.09;6194927;28;20050;-72
2023/10/07 03:23:26;;;;;;;7.20;3.60;;;;;;;9.88;88.03;100607.44;6195060;28;20045;-72
2023/10/07 03:26:32;;;;;;;10.75;3.58;;;;;;;9.86;88.64;100608.41;6193435;28;20492;-72
2023/10/07 03:29:37;;;;;;;6.38;3.92;;;;;;;9.86;88.74;100606.66;6193761;28;20046;-71
2023/10/07 03:32:58;;;;;;;7.68;4.32;;;;;;;9.92;88.48;100602.03;6192452;28;20489;-72
2023/10/07 03:36:09;;;;;;;6.43;3.78;;;;;;;9.88;88.29;100603.94;6194456;28;20050;-72
2023/10/07 03:42:15;;;;;;;6.65;3.80;;;;;;;9.82;88.76;100594.69;6194610;28;20057;-72
2023/10/07 03:45:19;;;;;;;6.07;3.80;;;;;;;9.82;88.60;100594.69;6194233;28;20054;-72
2023/10/07 03:48:34;;;;;;;7.70;4.35;;;;;;;9.87;88.98;100595.28;6194379;28;20083;-71
2023/10/07 03:51:37;;;;;;;9.27;4.18;;;;;;;9.67;88.98;100592.81;6193197;28;20083;-72
2023/10/07 03:54:42;;;;;;;9.10;4.43;;;;;;;9.66;89.37;100583.34;6192859;28;20050;-72
2023/10/07 03:57:43;;;;;;;8.35;4.00;;;;;;;9.75;89.75;100588.09;6194063;28;20055;-72
2023/10/07 04:00:46;;;;;;;12.27;3.95;;;;;;;9.63;89.50;100583.47;6192848;28;20050;-71
2023/10/07 04:03:49;;;;;;;5.10;3.13;;;;;;;9.64;90.07;100587.78;6193523;28;20452;-71
2023/10/07 04:06:51;;;;;;;7.47;3.90;;;;;;;9.69;89.63;100591.81;6193094;28;20099;-72
2023/10/07 04:10:11;;;;;;;7.15;3.60;;;;;;;9.69;90.15;100598.81;6192764;28;20050;-71
2023/10/07 04:13:21;;;;;;;6.20;3.47;;;;;;;9.60;89.30;100591.44;6294049;28;20133;-71
2023/10/07 04:16:24;;;;;;;6.20;3.58;;;;;;;9.57;90.21;100583.75;6192374;28;20559;-72
2023/10/07 04:22:30;;;;;;;7.32;3.88;;;;;;;9.60;89.83;100586.25;6193765;28;20092;-72
2023/10/07 04:25:31;;;;;;;12.13;3.83;;;;;;;9.49;90.93;100573.72;6194114;28;20058;-72
2023/10/07 04:28:32;;;;;;;5.70;3.10;;;;;;;9.48;90.93;100578.09;6193789;28;20062;-72
2023/10/07 04:31:37;;;;;;;8.23;3.40;;;;;;;9.62;90.53;100581.78;6191673;28;20057;-72
2023/10/07 04:34:48;;;;;;;7.45;3.58;;;;;;;9.72;89.88;100571.75;6193718;28;20054;-72
2023/10/07 04:37:55;;;;;;;7.18;3.47;;;;;;;9.71;89.42;100570.06;6191784;28;20061;-72
2023/10/07 04:47:38;;;;;;;8.07;3.72;;;;;;;9.71;89.54;100568.31;6203765;28;20112;-72
2023/10/07 04:50:42;;;;;;;7.95;3.53;;;;;;;9.73;90.07;100576.88;6183454;28;20062;-72
2023/10/07 04:53:53;;;;;;;4.90;3.28;;;;;;;9.75;90.34;100580.25;6186348;28;20057;-72
2023/10/07 04:57:01;;;;;;;6.68;3.45;;;;;;;9.75;90.24;100579.44;6186085;28;20053;-72
2023/10/07 05:00:07;;;;;;;8.05;3.65;;;;;;;9.83;90.03;100591.16;6196760;28;20421;-72
2023/10/07 05:03:19;;;;;;;7.07;3.88;;;;;;;9.89;89.39;100580.44;6197192;28;20042;-71
2023/10/07 05:06:20;;;;;;;9.32;3.60;;;;;;;9.92;88.67;100583.81;6196537;28;20058;-71
2023/10/07 05:09:21;;;;;;;7.22;3.38;;;;;;;9.79;89.46;100576.59;6197090;28;20524;-71
2023/10/07 05:12:22;;;;;;;8.88;3.50;;;;;;;9.82;89.93;100579.06;6189831;28;20074;-71
2023/10/07 05:15:25;;;;;;;12.10;3.20;;;;;;;9.79;90.05;100570.53;6194172;28;20541;-71
2023/10/07 05:18:27;;;;;;;6.15;3.50;;;;;;;9.76;90.86;100562.84;6196969;28;20050;-71
2023/10/07 05:21:28;;;;;;;6.93;3.28;;;;;;;9.64;91.43;100565.16;6195299;28;20054;-71
2023/10/07 05:24:29;;;;;;;13.70;3.65;;;;;;;9.82;91.48;100572.97;6192496;28;20410;-72
2023/10/07 05:27:30;;;;;;;7.10;3.50;;;;;;;9.85;92.07;100580.66;6195727;28;20057;-72
2023/10/07 05:30:32;;;;;;;6.45;2.97;;;;;;;10.08;90.86;100587.31;6195978;28;20050;-72
2023/10/07 05:33:34;;;;;;;7.43;3.95;;;;;;;10.02;91.31;100580.66;6187930;28;20050;-72
2023/10/07 05:36:37;;;;;;;8.65;4.10;;;;;;;9.96;91.49;100580.13;6187923;28;20054;-71
2023/10/07 05:39:41;;;;;;;15.27;3.63;;;;;;;10.03;91.13;100586.72;6196701;28;20060;-71
2023/10/07 05:42:45;;;;;;;5.10;3.25;;;;;;;10.04;90.76;100583.19;6194307;28;20096;-72
2023/10/07 05:45:46;;;;;;;6.47;3.10;;;;;;;10.04;91.00;100583.19;6196462;28;20089;-71
2023/10/07 05:48:47;;;;;;;6.03;3.15;;;;;;;10.08;91.51;100585.56;6194941;28;20050;-71
2023/10/07 05:51:51;;;;;;;6.20;3.80;;;;;;;10.09;90.47;100587.25;6195154;28;20465;-72
2023/10/07 05:54:56;;;;;;;7.55;3.35;;;;;;;10.00;90.83;100584.25;6196254;28;20049;-71
2023/10/07 05:57:58;;;;;;;6.10;3.50;;;;;;;10.35;90.02;100586.88;6196327;28;20046;-71
2023/10/07 06:00:59;;;;;;;8.43;3.40;;;;;;;10.48;89.65;100590.56;6195095;28;20050;-71
2023/10/07 06:04:00;;;;;;;10.18;3.80;;;;;;;10.59;88.78;100587.38;6196410;28;20135;-71
2023/10/07 06:07:01;;;;;;;7.05;3.38;;;;;;;10.66;88.25;100601.78;6195157;28;20072;-71
2023/10/07 06:10:02;;;;;;;10.30;3.90;;;;;;;10.65;88.09;100602.72;6196329;28;20064;-71
2023/10/07 06:13:10;;;;;;;11.60;3.83;;;;;;;10.89;87.14;100590.09;6190963;28;20050;-71
2023/10/07 06:16:13;;;;;;;8.25;4.05;;;;;;;11.03;87.13;100584.13;6192424;28;20054;-71
2023/10/07 06:19:17;;;;;;;4.55;2.65;;;;;;;11.11;86.53;100589.78;6195911;28;20046;-70
2023/10/07 06:22:18;;;;;;;6.15;3.63;;;;;;;11.29;85.83;100580.94;6194865;28;20137;-71
2023/10/07 06:25:22;;;;;;;7.82;3.97;;;;;;;11.35;85.49;100582.38;6196053;28;20054;-73
2023/10/07 06:28:29;;;;;;;9.13;4.18;;;;;;;11.61;84.04;100588.75;6196021;28;20057;-72
2023/10/07 06:31:33;;;;;;;11.27;3.80;;;;;;;11.73;83.79;100581.97;6194695;28;20490;-71
2023/10/07 06:34:38;;;;;;;6.32;4.15;;;;;;;11.81;82.91;100584.16;6194623;28;20085;-72
2023/10/07 06:37:44;;;;;;;10.52;3.58;;;;;;;11.97;82.61;100586.75;6192243;28;20085;-72
2023/10/07 06:40:48;;;;;;;11.27;4.07;;;;;;;12.00;81.68;100587.41;6194627;28;20420;-72
2023/10/07 06:43:54;;;;;;;6.75;3.58;;;;;;;12.21;81.16;100585.31;6194025;28;20103;-71
2023/10/07 06:46:57;;;;;;;7.82;3.60;;;;;;;12.35;80.01;100570.56;6194624;28;20050;-72
2023/10/07 06:49:58;;;;;;;10.23;3.67;;;;;;;12.54;80.08;100578.13;6194418;28;20054;-72
2023/10/07 06:52:59;;;;;;;8.70;4.20;;;;;;;12.92;79.41;100586.25;6195197;28;20735;-72
2023/10/07 06:56:03;;;;;;;6.50;3.38;;;;;;;13.05;78.04;100589.81;6194996;28;20055;-72
2023/10/07 06:59:04;;;;;;;9.00;3.20;;;;;;;13.03;76.95;100596.91;6195224;28;20057;-72
2023/10/07 07:02:10;;;;;;;8.38;3.35;;;;;;;13.24;77.14;100602.56;6193718;28;20471;-73
2023/10/07 07:05:16;;;;;;;10.65;3.45;;;;;;;13.42;76.53;100592.69;6192203;28;20058;-72
2023/10/07 07:08:27;;;;;;;11.02;3.90;;;;;;;13.45;76.00;100597.75;6194804;28;20054;-72
2023/10/07 07:11:29;;;;;;;8.48;3.55;;;;;;;13.73;75.63;100589.88;6170848;28;20491;-72
2023/10/07 07:14:31;;;;;;;9.20;3.20;;;;;;;13.85;75.24;100583.81;6183143;28;20058;-72
2023/10/07 07:21:00;;;;;;;7.15;3.35;;;;;;;14.32;73.17;100579.78;6194790;28;20046;-72
2023/10/07 07:24:03;;;;;;;9.55;3.30;;;;;;;14.40;72.62;100572.22;6194657;28;20133;-72
2023/10/07 07:27:03;;;;;;;6.97;3.08;;;;;;;14.51;71.04;100574.13;6194947;28;20057;-72
2023/10/07 07:30:07;;;;;;;11.43;3.40;;;;;;;14.82;71.64;100572.00;6193369;28;20413;-72
2023/10/07 07:33:11;;;;;;;6.05;2.78;;;;;;;14.97;69.63;100565.69;6194841;28;20046;-73
2023/10/07 07:39:22;;;;;;;4.95;3.17;;;;;;;15.36;68.37;100562.88;6194465;28;20050;-72
2023/10/07 07:42:27;;;;;;;4.75;2.72;;;;;;;15.74;67.55;100561.91;6193419;28;20054;-72
2023/10/07 07:45:35;;;;;;;9.98;2.90;;;;;;;15.80;66.77;100567.53;6194410;28;20096;-72
2023/10/07 07:48:38;;;;;;;6.07;2.95;;;;;;;15.78;66.93;100560.72;6194477;28;20054;-72
2023/10/07 07:51:40;;;;;;;8.57;3.15;;;;;;;16.14;66.17;100558.88;6192974;28;20428;-72
2023/10/07 07:54:42;;;;;;;16.30;3.28;;;;;;;16.36;64.68;100553.66;6194225;28;20058;-72
2023/10/07 07:57:45;;;;;;;7.50;2.90;;;;;;;16.58;64.08;100563.34;6193016;28;20369;-72
2023/10/07 08:00:58;;;;;;;6.43;2.78;;;;;;;16.76;64.26;100560.22;6193000;28;20062;-72
2023/10/07 08:03:59;;;;;;;8.55;2.85;;;;;;;16.86;62.75;100559.44;6193931;28;20054;-72
2023/10/07 08:07:06;;;;;;;9.23;2.83;;;;;;;16.85;62.19;100567.44;6194015;28;20080;-73
2023/10/07 08:10:10;;;;;;;6.45;3.03;;;;;;;17.26;62.43;100558.03;6192693;28;20046;-73
2023/10/07 08:13:11;;;;;;;8.23;2.97;;;;;;;17.69;62.95;100563.25;6193121;28;20107;-72
2023/10/07 08:16:19;;;;;;;7.50;3.00;;;;;;;17.61;60.80;100560.41;6193991;28;20116;-72
2023/10/07 08:19:23;;;;;;;8.57;2.92;;;;;;;17.73;61.23;100556.75;6192923;28;20058;-72
2023/10/07 08:22:27;;;;;;;9.57;2.50;;;;;;;17.97;60.67;100546.94;6193660;28;20047;-72
2023/10/07 08:25:46;;;;;;;13.20;2.83;;;;;;;17.81;60.56;100549.97;6195791;28;20078;-72
2023/10/07 08:32:00;;;;;;;6.05;2.78;;;;;;;18.28;59.51;100534.59;6198056;28;20050;-72
2023/10/07 08:35:03;;;;;;;;;;;;;;;18.45;59.91;100527.84;6198183;28;20379;-72
2023/10/07 08:38:19;;;;;;;5.18;2.28;;;;;;;18.73;58.99;100527.13;6196848;28;19929;-72
2023/10/07 08:41:26;;;;;;;7.85;2.63;;;;;;;18.79;59.54;100504.63;6197517;28;20054;-72
2023/10/07 08:44:31;;;;;;;11.85;2.75;;;;;;;19.10;58.54;100521.25;6196652;28;20046;-72
2023/10/07 08:47:40;;;;;;;7.35;2.85;;;;;;;19.39;57.44;100511.66;6196414;28;20129;-73
2023/10/07 08:50:59;;;;;;;;;;;;;;;19.60;57.52;100512.34;6198081;28;20054;-72
2023/10/07 08:54:09;;;;;;;6.22;2.42;;;;;;;19.93;56.82;100505.78;6196092;28;19926;-72
2023/10/07 08:57:16;;;;;;;8.27;2.55;;;;;;;19.90;56.48;100510.53;6196536;28;20058;-72
2023/10/07 09:00:21;;;;;;;17.45;2.85;;;;;;;19.86;56.33;100519.72;6197243;28;20054;-72
2023/10/07 09:03:26;;;;;;;15.02;2.85;;;;;;;20.16;55.95;100507.22;6197416;28;20056;-72
2023/10/07 09:06:33;;;;;;;10.65;2.60;;;;;;;20.48;54.49;100504.19;6197783;28;20133;-72
2023/10/07 09:09:39;;;;;;;11.98;2.03;;;;;;;20.43;54.63;100501.97;6197205;28;20103;-72
2023/10/07 09:12:49;;;;;;;7.00;2.53;;;;;;;20.58;54.98;100505.00;6298018;28;20151;-73
2023/10/07 09:15:53;;;;;;;13.02;2.17;;;;;;;20.87;53.83;100507.47;6197259;28;20054;-72
2023/10/07 09:18:55;;;;;;;13.88;2.30;;;;;;;20.98;53.43;100503.81;6197083;28;20538;-72
2023/10/07 09:22:10;;;;;;;21.23;2.60;;;;;;;20.96;53.80;100499.59;6195714;28;20051;-72
2023/10/07 09:25:17;;;;;;;9.55;2.05;;;;;;;20.62;54.18;100498.41;6196927;28;20486;-72
2023/10/07 09:28:29;;;;;;;8.90;2.40;;;;;;;20.52;54.16;100484.34;6196905;28;20073;-72
2023/10/07 09:31:30;;;;;;;5.05;2.53;;;;;;;20.27;55.04;100483.22;6196759;28;20054;-72
2023/10/07 09:34:47;;;;;;;6.70;2.63;;;;;;;20.18;55.06;100468.19;6196977;28;20076;-72
2023/10/07 09:37:53;;;;;;;5.05;2.47;;;;;;;20.11;54.93;100466.13;6195125;28;20058;-72
2023/10/07 09:43:59;;;;;;;10.95;2.95;;;;;;;20.87;52.54;100461.56;6196445;28;20042;-72
2023/10/07 09:47:05;;;;;;;6.32;2.50;;;;;;;21.34;51.39;100451.53;6196585;28;20054;-73
2023/10/07 09:53:44;;;;;;;9.90;2.25;;;;;;;21.54;49.41;100446.09;6196308;28;20096;-72
2023/10/07 09:57:07;;;;;;;14.77;3.13;;;;;;;21.75;49.00;100437.75;6195140;28;20055;-72
2023/10/07 10:03:51;;;;;;;16.63;3.05;;;;;;;22.34;43.62;100421.94;6196024;28;20486;-72
2023/10/07 10:07:25;;;;;;;10.95;2.40;;;;;;;22.39;43.68;100422.31;6196009;28;20486;-72
2023/10/07 10:10:32;;;;;;;10.40;2.72;;;;;;;22.29;43.38;100417.09;6227362;28;20054;-72
2023/10/07 10:17:20;;;;;;;13.57;3.65;;;;;;;21.45;44.83;100401.88;6196036;28;20054;-72
2023/10/07 10:20:19;;;;;;;14.93;3.17;;;;;;;21.16;43.92;100408.28;6195687;28;20054;-72
2023/10/07 10:23:20;;;;;;;14.32;2.47;;;;;;;21.01;45.23;100404.50;6195686;28;20066;-72
2023/10/07 10:26:22;;;;;;;13.50;2.67;;;;;;;20.62;45.74;100392.38;6196096;28;20165;-72
2023/10/07 10:29:31;;;;;;;12.55;2.90;;;;;;;21.05;45.70;100400.56;6195618;28;20050;-72
2023/10/07 10:32:36;;;;;;;14.27;2.85;;;;;;;21.37;45.26;100393.81;6195619;28;20050;-72
2023/10/07 10:35:40;;;;;;;18.38;2.55;;;;;;;21.85;44.58;100393.31;6195692;28;20070;-72
2023/10/07 10:38:44;;;;;;;8.93;2.70;;;;;;;21.99;44.83;100394.56;6195469;28;20481;-72
2023/10/07 10:41:46;;;;;;;6.40;2.10;;;;;;;22.13;42.73;100401.94;6195598;28;20047;-72
2023/10/07 10:44:46;;;;;;;8.90;2.20;;;;;;;22.38;42.39;100406.50;6195360;28;20058;-72
2023/10/07 10:47:54;;;;;;;6.60;2.30;;;;;;;22.06;41.46;100394.75;6193353;28;20159;-72
2023/10/07 10:50:56;;;;;;;16.67;2.95;;;;;;;21.58;43.74;100399.66;6295697;28;20062;-72
2023/10/07 10:53:57;;;;;;;5.22;2.50;;;;;;;21.72;43.70;100387.59;6193826;28;20046;-72
2023/10/07 10:56:58;;;;;;;7.25;2.22;;;;;;;21.73;44.55;100389.28;6193988;28;20058;-72
2023/10/07 11:00:11;;;;;;;14.37;3.73;;;;;;;21.74;44.19;100380.31;6194179;28;20050;-72
2023/10/07 11:03:17;;;;;;;10.00;2.33;;;;;;;22.12;45.08;100373.69;6194940;28;20405;-72
2023/10/07 11:06:19;;;;;;;7.40;2.22;;;;;;;22.32;44.09;100360.97;6195207;28;20054;-72
2023/10/07 11:09:25;;;;;;;7.50;2.25;;;;;;;22.45;42.55;100359.69;6193764;28;20076;-72
2023/10/07 11:12:28;;;;;;;6.88;2.47;;;;;;;22.90;43.16;100353.06;6195045;28;20062;-72
2023/10/07 11:15:29;;;;;;;13.13;2.80;;;;;;;23.01;41.27;100349.25;6194845;28;20414;-73
2023/10/07 11:18:33;;;;;;;9.05;2.42;;;;;;;23.09;40.86;100338.63;6194838;28;20050;-72
2023/10/07 11:21:44;;;;;;;12.13;2.55;;;;;;;23.40;39.90;100344.06;6194652;28;20057;-72
2023/10/07 11:24:49;;;;;;;13.65;3.05;;;;;;;23.21;39.37;100342.59;6193658;28;20051;-73
2023/10/07 11:27:54;;;;;;;8.63;2.40;;;;;;;23.40;39.36;100335.25;6194677;28;20087;-72
2023/10/07 11:30:55;;;;;;;5.70;2.22;;;;;;;23.48;38.88;100335.22;6194465;28;20493;-73
2023/10/07 11:33:59;;;;;;;6.60;2.72;;;;;;;23.79;39.17;100339.81;6194416;28;20605;-73
2023/10/07 11:37:13;;;;;;;4.30;2.00;;;;;;;23.73;38.31;100327.97;6194653;28;20119;-72
2023/10/07 11:40:14;;;;;;;13.45;3.17;;;;;;;23.62;38.50;100321.19;6194504;28;20079;-73
2023/10/07 11:43:15;;;;;;;8.95;2.35;;;;;;;23.42;39.25;100319.94;6194488;28;20049;-72
2023/10/07 11:46:19;;;;;;;10.70;2.72;;;;;;;23.66;39.42;100321.66;6193191;28;20494;-72
2023/10/07 11:49:26;;;;;;;5.93;2.28;;;;;;;23.79;37.93;100306.00;6193076;28;20050;-72
2023/10/07 11:52:29;;;;;;;13.30;3.72;;;;;;;23.44;39.15;100316.09;6193190;28;20046;-72
2023/10/07 11:55:33;;;;;;;12.77;2.13;;;;;;;23.00;39.05;100315.63;6194752;28;20057;-72
2023/10/07 11:58:36;;;;;;;6.57;2.30;;;;;;;23.67;38.51;100305.50;6194838;28;20525;-73
2023/10/07 12:01:38;;;;;;;7.65;2.20;;;;;;;23.64;36.75;100299.69;6197146;28;20077;-73
2023/10/07 12:04:40;;;;;;;9.65;2.30;;;;;;;23.55;37.13;100304.22;6198305;28;20505;-73
2023/10/07 12:07:47;;;;;;;23.77;2.70;;;;;;;23.53;38.13;100300.91;6197310;28;20054;-72
2023/10/07 12:10:49;;;;;;;6.80;2.22;;;;;;;23.47;37.35;100299.78;6197131;28;20054;-73
2023/10/07 12:13:50;;;;;;;;;;;;;;;23.15;37.99;100299.88;6198720;28;20377;-73
2023/10/07 12:16:50;;;;;;;4.05;2.15;;;;;;;22.68;37.08;100299.53;6197197;28;19932;-72
2023/10/07 12:19:51;;;;;;;5.93;1.90;;;;;;;23.11;37.58;100297.53;6197068;28;20046;-73
2023/10/07 12:22:52;;;;;;;6.93;2.20;;;;;;;23.67;37.23;100286.88;6196918;28;20046;-72
2023/10/07 12:25:57;;;;;;;6.20;2.47;;;;;;;24.32;36.82;100287.56;6196818;28;20054;-72
2023/10/07 12:29:02;;;;;;;5.15;2.22;;;;;;;24.69;34.55;100278.78;6196741;28;20051;-73
2023/10/07 12:32:05;;;;;;;4.05;2.00;;;;;;;24.57;36.13;100274.88;6196914;28;20050;-73
2023/10/07 12:35:09;;;;;;;5.63;2.33;;;;;;;24.88;35.80;100273.94;6196706;28;20448;-72
2023/10/07 12:38:09;;;;;;;8.98;2.22;;;;;;;24.80;35.31;100279.34;6198008;28;20062;-72
2023/10/07 12:41:13;;;;;;;4.28;2.03;;;;;;;24.67;36.12;100272.78;6196847;28;20050;-72
2023/10/07 12:44:17;;;;;;;6.20;2.08;;;;;;;24.76;36.43;100260.19;6197787;28;20049;-72
2023/10/07 12:47:18;;;;;;;8.23;2.55;;;;;;;24.68;35.04;100254.94;6196668;28;20456;-72
2023/10/07 12:50:32;;;;;;;5.20;2.10;;;;;;;24.76;36.32;100254.88;6196668;28;20080;-72
2023/10/07 12:53:33;;;;;;;8.18;2.17;;;;;;;24.49;35.84;100246.44;6196122;28;20054;-73
2023/10/07 12:56:42;;;;;;;7.50;2.50;;;;;;;24.60;35.49;100245.16;6197697;28;20057;-72
2023/10/07 12:59:44;;;;;;;6.18;2.33;;;;;;;24.00;35.28;100244.09;6197338;28;20410;-73
2023/10/07 13:02:50;;;;;;;11.52;2.33;;;;;;;24.01;35.67;100236.91;6196080;28;20050;-73
2023/10/07 13:05:54;;;;;;;10.63;2.13;;;;;;;23.92;36.57;100236.97;6197231;28;20426;-72
2023/10/07 13:08:57;;;;;;;5.53;2.47;;;;;;;23.79;36.67;100228.75;6197456;28;20050;-72
2023/10/07 13:11:59;;;;;;;3.90;1.92;;;;;;;23.64;36.74;100219.78;6196513;28;20054;-72
2023/10/07 13:15:00;;;;;;;6.28;2.20;;;;;;;23.17;37.01;100210.84;6195812;28;20043;-72
2023/10/07 13:18:03;;;;;;;5.40;2.53;;;;;;;23.00;37.91;100219.84;6195979;28;20061;-72
2023/10/07 13:21:07;;;;;;;12.95;2.65;;;;;;;23.03;38.39;100208.91;6195758;28;20050;-72
2023/10/07 13:24:08;;;;;;;4.70;2.20;;;;;;;23.05;37.89;100209.56;6196947;28;20050;-72
2023/10/07 13:27:08;;;;;;;7.20;2.13;;;;;;;23.07;38.53;100194.25;6196875;28;20057;-72
2023/10/07 13:30:12;;;;;;;6.03;1.93;;;;;;;23.17;37.81;100208.19;6196833;28;20502;-72
2023/10/07 13:33:13;;;;;;;10.90;2.00;;;;;;;23.36;37.87;100211.44;6196677;28;20624;-72
2023/10/07 13:36:16;;;;;;;6.65;2.22;;;;;;;23.70;37.77;100209.28;6195565;28;20512;-73
2023/10/07 13:39:17;;;;;;;4.68;2.15;;;;;;;23.97;36.94;100216.97;6195735;28;20054;-72
2023/10/07 13:42:18;;;;;;;5.67;2.43;;;;;;;24.04;37.14;100221.41;6195681;28;20121;-73
2023/10/07 13:45:23;;;;;;;4.60;2.10;;;;;;;23.65;37.50;100224.94;6196592;28;20504;-72
2023/10/07 13:48:24;;;;;;;5.13;2.20;;;;;;;23.57;38.20;100217.00;6196760;28;20089;-73
2023/10/07 13:51:31;;;;;;;8.30;1.80;;;;;;;22.98;38.16;100217.38;6196464;28;20051;-72
2023/10/07 13:54:47;;;;;;;4.38;2.20;;;;;;;22.84;38.56;100210.91;6196249;28;20054;-72
2023/10/07 13:58:00;;;;;;;5.40;2.00;;;;;;;22.67;39.03;100217.25;6196321;28;20050;-72
2023/10/07 14:01:01;;;;;;;5.05;2.28;;;;;;;22.51;40.29;100215.44;6196557;28;20054;-73
2023/10/07 14:04:06;;;;;;;3.40;1.70;;;;;;;22.53;40.43;100203.66;6196106;28;20061;-72
2023/10/07 14:07:09;;;;;;;4.97;2.35;;;;;;;22.51;40.43;100199.50;6195409;28;20054;-72
2023/10/07 14:10:14;;;;;;;6.28;2.63;;;;;;;22.57;41.41;100197.97;6195344;28;20051;-73
2023/10/07 14:13:16;;;;;;;6.90;2.08;;;;;;;22.55;41.78;100195.50;6196155;28;20072;-72
2023/10/07 14:16:17;;;;;;;5.38;1.80;;;;;;;22.58;42.02;100194.34;6194804;28;20054;-72
2023/10/07 14:19:19;;;;;;;2.97;1.90;;;;;;;22.39;41.80;100196.34;6195963;28;20050;-72
2023/10/07 14:22:20;;;;;;;6.47;2.40;;;;;;;22.31;43.26;100193.69;6193718;28;20054;-72
2023/10/07 14:25:20;;;;;;;7.30;2.20;;;;;;;22.45;42.92;100187.69;6195730;28;20103;-72
2023/10/07 14:28:22;;;;;;;5.27;1.97;;;;;;;22.44;43.46;100193.19;6194692;28;20083;-72
2023/10/07 14:31:23;;;;;;;2.97;1.63;;;;;;;22.37;43.56;100190.38;6194622;28;20054;-72
2023/10/07 14:34:24;;;;;;;6.60;1.90;;;;;;;22.22;44.02;100181.38;6194422;28;20051;-73
2023/10/07 14:37:25;;;;;;;4.23;1.93;;;;;;;22.29;44.02;100179.72;6194416;28;20395;-72
2023/10/07 14:40:26;;;;;;;3.93;2.13;;;;;;;22.32;44.63;100190.88;6195600;28;20517;-72
2023/10/07 14:43:29;;;;;;;3.57;1.83;;;;;;;22.28;44.32;100183.41;6195469;28;20490;-72
2023/10/07 14:46:30;;;;;;;3.90;2.00;;;;;;;22.25;44.29;100181.88;6194124;28;20050;-72
2023/10/07 14:49:36;;;;;;;11.90;2.47;;;;;;;22.15;44.28;100181.19;6195353;28;20141;-72
2023/10/07 14:52:37;;;;;;;4.65;2.00;;;;;;;22.26;45.19;100185.41;6194953;28;20111;-72
2023/10/07 14:55:49;;;;;;;12.38;2.22;;;;;;;22.08;44.14;100174.88;6194213;28;20095;-72
2023/10/07 14:58:51;;;;;;;7.70;1.90;;;;;;;22.01;45.85;100176.53;6195217;28;20052;-72
2023/10/07 15:01:52;;;;;;;13.10;2.00;;;;;;;22.02;44.82;100175.56;6194182;28;20053;-72
2023/10/07 15:04:53;;;;;;;5.70;1.77;;;;;;;21.94;44.92;100176.38;6194028;28;20050;-72
2023/10/07 15:07:54;;;;;;;2.53;1.67;;;;;;;21.86;44.81;100182.50;6195271;28;20460;-72
2023/10/07 15:10:55;;;;;;;6.53;2.20;;;;;;;21.73;44.57;100172.34;6193683;28;20054;-72